KPTN/PTN METAR and TAF weather

Enter ICAO airport designator
Station Type Date Time Source
KPTN METAR 2020/07/09 23:56 UTC NOAA

KPTN 092356Z AUTO 22008KT 10SM CLR 30/26 A2997 RMK AO2 SLP148 T03000256 10328 20300 55000


Station Type Date Time Source
KPTN Decoded METAR 2020/07/09 23:56 UTC NOAA

Patterson Memorial, LA, United States (KPTN) 29-43N 091-20W
Jul 09, 2020 - 07:56 PM EDT / 2020.07.09 2356 UTC
Wind: from the SW (220 degrees) at 9 MPH (8 KT):0
Visibility: 10 mile(s):0
Sky conditions: clear
Temperature: 86.0 F (30.0 C)
Heat index: 98.2 F (36.8 C):1
Dew Point: 78.1 F (25.6 C)
Relative Humidity: 77%
Pressure (altimeter): 29.97 in. Hg (1014 hPa)
Pressure tendency: 0.00 inches (0.0 hPa) lower than three hours ago
ob: KPTN 092356Z AUTO 22008KT 10SM CLR 30/26 A2997 RMK AO2 SLP148 T03000256 10328 20300 55000
cycle: 0

Station Type Date Time Source
KPTN TAF UTC NOAA

Error!

Example: see airport list